createdAt,value
2023-05-02T00:02:00.870Z,92.90
2023-05-02T00:05:51.218Z,81.90
2023-05-02T00:09:13.828Z,81.80
2023-05-02T00:12:51.842Z,84.00
2023-05-02T00:16:56.880Z,82.60
2023-05-02T00:20:24.291Z,76.90
2023-05-02T00:24:01.514Z,68.50
2023-05-02T00:27:39.373Z,70.70
2023-05-02T00:30:59.648Z,85.40
2023-05-02T00:35:07.053Z,63.40
2023-05-02T00:38:22.438Z,84.50
2023-05-02T00:42:01.532Z,76.70
2023-05-02T00:46:13.428Z,79.50
2023-05-02T00:49:41.557Z,68.20
2023-05-02T00:53:03.906Z,75.00
2023-05-02T00:56:56.869Z,93.60
2023-05-02T01:00:55.344Z,77.00
2023-05-02T01:04:23.464Z,82.10
2023-05-02T01:07:47.901Z,87.30
2023-05-02T01:16:08.483Z,79.20
2023-05-02T01:19:36.558Z,79.70
2023-05-02T01:23:23.044Z,80.40
2023-05-02T01:26:42.042Z,83.20
2023-05-02T01:30:10.361Z,82.80
2023-05-02T01:33:54.019Z,74.60
2023-05-02T01:37:39.648Z,77.60
2023-05-02T01:41:17.261Z,84.10
2023-05-02T01:44:58.933Z,75.30
2023-05-02T01:48:32.078Z,97.70
2023-05-02T01:52:11.564Z,64.60
2023-05-02T01:56:07.447Z,65.40
2023-05-02T01:59:50.267Z,58.10
2023-05-02T02:03:36.672Z,70.00
2023-05-02T02:06:49.788Z,72.30
2023-05-02T02:10:42.503Z,57.00
2023-05-02T02:14:16.152Z,70.40
2023-05-02T02:18:21.337Z,65.40
2023-05-02T02:21:31.084Z,56.10
2023-05-02T02:25:04.010Z,62.90
2023-05-02T02:28:47.813Z,69.40
2023-05-02T02:32:36.383Z,59.20
2023-05-02T02:36:31.352Z,54.60
2023-05-02T02:39:55.061Z,54.20
2023-05-02T02:43:28.988Z,59.50
2023-05-02T02:47:26.061Z,55.70
2023-05-02T02:51:08.924Z,55.50
2023-05-02T02:54:37.150Z,70.30
2023-05-02T02:58:21.791Z,59.40
2023-05-02T03:01:33.861Z,62.20
2023-05-02T03:05:19.585Z,61.40
2023-05-02T03:09:17.987Z,52.60
2023-05-02T03:12:34.842Z,53.80
2023-05-02T03:16:29.319Z,40.50
2023-05-02T03:20:06.253Z,50.50
2023-05-02T03:23:27.354Z,45.50
2023-05-02T03:27:04.803Z,50.00
2023-05-02T03:30:43.671Z,59.30
2023-05-02T03:34:22.271Z,53.60
2023-05-02T03:38:15.892Z,48.90
2023-05-02T03:41:34.865Z,64.70
2023-05-02T03:45:21.675Z,58.20
2023-05-02T03:49:05.726Z,56.50
2023-05-02T03:52:51.609Z,50.80
2023-05-02T03:56:46.468Z,54.60
2023-05-02T04:00:04.818Z,49.80
2023-05-02T04:03:56.499Z,59.20
2023-05-02T04:07:50.889Z,64.70
2023-05-02T04:11:11.905Z,66.80
2023-05-02T04:15:09.266Z,65.20
2023-05-02T04:18:44.377Z,65.80
2023-05-02T04:22:23.400Z,64.00
2023-05-02T04:26:00.062Z,65.40
2023-05-02T04:29:21.294Z,68.60
2023-05-02T04:32:58.069Z,55.90
2023-05-02T04:36:35.979Z,56.00
2023-05-02T04:40:15.077Z,56.10
2023-05-02T04:44:08.353Z,70.50
2023-05-02T04:47:55.748Z,60.40
2023-05-02T04:51:22.618Z,55.10
2023-05-02T04:55:00.056Z,60.30
2023-05-02T04:58:25.608Z,61.30
2023-05-02T05:01:59.871Z,72.20
2023-05-02T05:05:51.580Z,60.90
2023-05-02T05:09:13.043Z,52.70
2023-05-02T05:13:13.543Z,62.00
2023-05-02T05:16:35.863Z,52.10
2023-05-02T05:20:38.146Z,55.90
2023-05-02T05:23:58.965Z,57.30
2023-05-02T05:27:28.845Z,61.20
2023-05-02T05:31:17.231Z,54.50
2023-05-02T05:34:42.268Z,59.30
2023-05-02T05:38:52.583Z,53.00
2023-05-02T05:42:05.974Z,48.10
2023-05-02T05:45:56.424Z,53.30
2023-05-02T05:49:46.155Z,53.80
2023-05-02T05:53:23.905Z,55.70
2023-05-02T05:56:44.770Z,52.10
2023-05-02T06:00:32.815Z,55.70
2023-05-02T06:04:17.188Z,55.00
2023-05-02T06:07:37.964Z,44.90
2023-05-02T06:11:33.532Z,50.80
2023-05-02T06:14:53.989Z,52.60
2023-05-02T06:18:35.656Z,58.20
2023-05-02T06:22:08.677Z,54.30
2023-05-02T06:26:06.146Z,51.80
2023-05-02T06:29:22.474Z,49.00
2023-05-02T06:33:34.772Z,44.80
2023-05-02T06:37:11.919Z,45.20
2023-05-02T06:40:44.745Z,52.90
2023-05-02T06:44:17.480Z,48.40
2023-05-02T06:47:55.219Z,46.90
2023-05-02T06:51:42.835Z,55.10
2023-05-02T06:55:18.238Z,39.10
2023-05-02T06:58:56.238Z,40.40
2023-05-02T07:02:26.173Z,41.70
2023-05-02T07:06:13.685Z,42.80
2023-05-02T07:09:41.353Z,38.90
2023-05-02T07:13:02.216Z,38.10
2023-05-02T07:16:38.945Z,38.00
2023-05-02T07:20:41.891Z,32.70
2023-05-02T07:24:19.663Z,33.80
2023-05-02T07:27:49.275Z,34.70
2023-05-02T07:31:24.939Z,39.20
2023-05-02T07:35:21.560Z,34.20
2023-05-02T07:38:49.663Z,29.40
2023-05-02T07:42:09.156Z,30.70
2023-05-02T07:46:09.086Z,25.70
2023-05-02T07:49:50.351Z,28.00
2023-05-02T07:53:26.552Z,24.80
2023-05-02T07:57:08.097Z,27.10
2023-05-02T08:00:28.602Z,31.80
2023-05-02T08:04:03.394Z,24.00
2023-05-02T08:07:56.282Z,29.30
2023-05-02T08:11:35.031Z,21.70
2023-05-02T08:15:20.616Z,25.30
2023-05-02T08:18:41.458Z,17.60
2023-05-02T08:22:31.919Z,28.00
2023-05-02T08:26:06.343Z,26.90
2023-05-02T08:29:53.484Z,28.00
2023-05-02T08:33:20.265Z,26.20
2023-05-02T08:36:59.322Z,29.30
2023-05-02T08:40:42.267Z,30.90
2023-05-02T08:44:14.530Z,24.30
2023-05-02T08:47:35.528Z,31.50
2023-05-02T08:51:15.268Z,30.50
2023-05-02T08:55:17.908Z,26.90
2023-05-02T08:58:53.504Z,32.10
2023-05-02T09:02:43.225Z,29.10
2023-05-02T09:06:07.179Z,29.10
2023-05-02T09:09:38.447Z,36.70
2023-05-02T09:13:34.848Z,27.90
2023-05-02T09:16:59.493Z,29.00
2023-05-02T09:20:40.748Z,30.20
2023-05-02T09:23:55.463Z,34.30
2023-05-02T09:27:52.855Z,27.60
2023-05-02T09:31:12.153Z,45.50
2023-05-02T09:35:03.692Z,36.00
2023-05-02T09:39:16.741Z,101.70
2023-05-02T09:42:34.781Z,56.10
2023-05-02T09:46:21.860Z,78.50
2023-05-02T09:49:49.877Z,35.90
2023-05-02T09:53:52.412Z,35.90
2023-05-02T09:57:40.923Z,29.30
2023-05-02T10:01:17.764Z,29.20
2023-05-02T10:04:28.830Z,31.80
2023-05-02T10:08:06.888Z,45.40
2023-05-02T10:12:03.033Z,41.40
2023-05-02T10:15:43.900Z,52.30
2023-05-02T10:19:03.344Z,29.00
2023-05-02T10:22:37.266Z,34.60
2023-05-02T10:26:16.093Z,47.00
2023-05-02T10:29:54.665Z,34.00
2023-05-02T10:33:56.623Z,48.40
2023-05-02T10:37:24.460Z,57.50
2023-05-02T10:41:04.986Z,50.70
2023-05-02T10:44:41.108Z,58.50
2023-05-02T10:48:15.372Z,56.60
2023-05-02T10:51:56.588Z,50.70
2023-05-02T10:55:43.786Z,45.70
2023-05-02T10:59:29.235Z,41.10
2023-05-02T11:02:51.961Z,39.80
2023-05-02T11:06:27.253Z,41.80
2023-05-02T11:09:46.992Z,49.70
2023-05-02T11:13:50.274Z,39.20
2023-05-02T11:17:20.988Z,46.30
2023-05-02T11:21:28.070Z,43.20
2023-05-02T11:24:40.089Z,52.60
2023-05-02T11:27:53.497Z,54.90
2023-05-02T11:31:56.324Z,49.30
2023-05-02T11:35:24.990Z,46.00
2023-05-02T11:38:51.789Z,57.10
2023-05-02T11:42:36.988Z,47.20
2023-05-02T11:46:32.223Z,44.10
2023-05-02T11:49:50.157Z,46.60
2023-05-02T11:53:36.520Z,47.80
2023-05-02T11:57:33.784Z,40.30
2023-05-02T12:00:52.627Z,49.90
2023-05-02T12:04:45.359Z,53.60
2023-05-02T12:08:04.745Z,47.10
2023-05-02T12:12:08.066Z,49.30
2023-05-02T12:15:36.029Z,47.00
2023-05-02T12:19:07.225Z,49.40
2023-05-02T12:22:43.339Z,54.60
2023-05-02T12:26:36.553Z,44.50
2023-05-02T12:30:00.046Z,46.40
2023-05-02T12:33:48.228Z,41.80
2023-05-02T12:37:23.111Z,47.30
2023-05-02T12:41:06.808Z,37.50
2023-05-02T12:44:46.323Z,40.60
2023-05-02T12:48:26.216Z,39.90
2023-05-02T12:51:43.980Z,37.40
2023-05-02T12:55:32.110Z,39.80
2023-05-02T12:59:28.412Z,38.20
2023-05-02T13:03:01.208Z,43.50
2023-05-02T13:06:40.161Z,49.20
2023-05-02T13:10:25.467Z,50.20
2023-05-02T13:13:54.515Z,50.50
2023-05-02T13:17:32.401Z,53.90
2023-05-02T13:21:15.538Z,48.00
2023-05-02T13:24:57.537Z,58.80
2023-05-02T13:28:25.804Z,55.50
2023-05-02T13:32:03.866Z,57.10
2023-05-02T13:35:40.958Z,55.20
2023-05-02T13:39:28.330Z,39.20
2023-05-02T13:42:57.045Z,45.10
2023-05-02T13:46:35.806Z,39.80
2023-05-02T13:49:54.716Z,44.50
2023-05-02T13:53:49.263Z,45.60
2023-05-02T13:57:28.158Z,45.50
2023-05-02T14:00:45.870Z,41.80
2023-05-02T14:04:49.386Z,45.70
2023-05-02T14:08:25.484Z,31.70
2023-05-02T14:12:03.837Z,41.60
2023-05-02T14:15:27.659Z,37.60
2023-05-02T14:19:01.754Z,38.90
2023-05-02T14:22:49.579Z,34.20
2023-05-02T14:26:34.220Z,34.30
2023-05-02T14:30:12.635Z,45.90
2023-05-02T14:33:59.736Z,32.90
2023-05-02T14:37:10.864Z,32.60
2023-05-02T14:40:46.871Z,40.10
2023-05-02T14:44:49.586Z,37.00
2023-05-02T14:48:26.272Z,31.30
2023-05-02T14:52:02.272Z,42.40
2023-05-02T14:55:45.301Z,32.30
2023-05-02T14:59:23.113Z,44.10
2023-05-02T15:02:47.876Z,38.90
2023-05-02T15:06:20.529Z,36.00
2023-05-02T15:10:06.591Z,35.20
2023-05-02T15:13:50.414Z,37.50
2023-05-02T15:17:27.961Z,29.20
2023-05-02T15:21:06.825Z,31.70
2023-05-02T15:24:43.927Z,40.60
2023-05-02T15:28:03.207Z,44.90
2023-05-02T15:32:05.643Z,34.00
2023-05-02T15:35:57.962Z,35.20
2023-05-02T15:39:24.436Z,32.00
2023-05-02T15:42:41.822Z,49.40
2023-05-02T15:46:35.692Z,33.30
2023-05-02T15:50:17.660Z,35.80
2023-05-02T15:54:01.254Z,30.80
2023-05-02T15:57:29.034Z,42.90
2023-05-02T16:01:06.891Z,42.00
2023-05-02T16:04:32.230Z,34.60
2023-05-02T16:08:21.278Z,39.00
2023-05-02T16:11:58.208Z,34.30
2023-05-02T16:15:38.470Z,41.30
2023-05-02T16:19:23.965Z,34.70
2023-05-02T16:22:52.960Z,40.70
2023-05-02T16:26:15.079Z,32.90
2023-05-02T16:30:10.546Z,36.50
2023-05-02T16:33:39.714Z,35.70
2023-05-02T16:37:25.685Z,41.00
2023-05-02T16:41:06.188Z,34.30
2023-05-02T16:44:39.326Z,32.90
2023-05-02T16:48:00.944Z,45.70
2023-05-02T16:51:37.802Z,36.40
2023-05-02T16:55:16.796Z,43.40
2023-05-02T16:59:08.223Z,41.70
2023-05-02T17:02:56.183Z,41.80
2023-05-02T17:06:23.526Z,43.20
2023-05-02T17:09:47.013Z,39.80
2023-05-02T17:13:42.851Z,47.20
2023-05-02T17:17:03.139Z,38.20
2023-05-02T17:20:56.463Z,42.80
2023-05-02T17:24:17.420Z,51.20
2023-05-02T17:27:55.943Z,55.90
2023-05-02T17:31:49.499Z,59.50
2023-05-02T17:35:37.512Z,61.80
2023-05-02T17:39:03.567Z,63.40
2023-05-02T17:42:43.924Z,62.80
2023-05-02T17:46:10.333Z,68.30
2023-05-02T17:50:04.329Z,70.10
2023-05-02T17:53:46.664Z,60.30
2023-05-02T17:57:12.199Z,62.50
2023-05-02T18:00:52.534Z,74.00
2023-05-02T18:04:12.844Z,61.40
2023-05-02T18:08:15.224Z,76.20
2023-05-02T18:11:52.946Z,74.10
2023-05-02T18:15:14.158Z,78.20
2023-05-02T18:18:51.977Z,69.30
2023-05-02T18:22:32.237Z,103.80
2023-05-02T18:26:22.347Z,187.10
2023-05-02T18:30:00.096Z,195.40
2023-05-02T18:33:40.883Z,176.70
2023-05-02T18:37:17.088Z,144.90
2023-05-02T18:40:37.229Z,110.80
2023-05-02T18:44:32.122Z,114.50
2023-05-02T18:48:09.477Z,103.90
2023-05-02T18:51:50.777Z,97.70
2023-05-02T18:55:34.956Z,96.70
2023-05-02T18:58:56.681Z,82.20
2023-05-02T19:02:41.832Z,94.40
2023-05-02T19:06:28.831Z,92.90
2023-05-02T19:10:08.417Z,143.20
2023-05-02T19:13:33.500Z,141.80
2023-05-02T19:16:54.442Z,91.00
2023-05-02T19:20:49.026Z,107.20
2023-05-02T19:24:10.241Z,87.40
2023-05-02T19:27:49.504Z,83.00
2023-05-02T19:31:43.116Z,89.50
2023-05-02T19:35:21.612Z,98.70
2023-05-02T19:38:41.699Z,95.90
2023-05-02T19:42:21.771Z,104.80
2023-05-02T19:46:06.757Z,110.90
2023-05-02T19:49:44.336Z,96.50
2023-05-02T19:53:31.160Z,109.50
2023-05-02T19:57:17.284Z,115.20
2023-05-02T20:00:45.648Z,105.20
2023-05-02T20:04:05.065Z,101.80
2023-05-02T20:07:59.360Z,85.40
2023-05-02T20:11:23.369Z,76.70
2023-05-02T20:14:58.847Z,77.60
2023-05-02T20:18:34.217Z,75.50
2023-05-02T20:22:23.331Z,75.10
2023-05-02T20:25:56.914Z,73.30
2023-05-02T20:29:33.006Z,64.70
2023-05-02T20:33:44.601Z,70.40
2023-05-02T20:36:58.545Z,59.60
2023-05-02T20:40:43.652Z,69.00
2023-05-02T20:44:11.032Z,64.20
2023-05-02T20:47:48.224Z,53.00
2023-05-02T20:51:50.883Z,57.90
2023-05-02T20:55:26.975Z,65.50
2023-05-02T20:58:47.449Z,57.20
2023-05-02T21:02:33.680Z,69.20
2023-05-02T21:06:21.735Z,56.70
2023-05-02T21:09:47.864Z,61.90
2023-05-02T21:13:24.756Z,59.60
2023-05-02T21:17:09.539Z,61.70
2023-05-02T21:20:47.402Z,69.10
2023-05-02T21:24:35.160Z,70.80
2023-05-02T21:28:02.640Z,69.00
2023-05-02T21:31:40.500Z,61.30
2023-05-02T21:35:18.252Z,64.30
2023-05-02T21:39:12.745Z,62.60
2023-05-02T21:42:50.258Z,62.00
2023-05-02T21:46:26.243Z,64.90
2023-05-02T21:50:08.471Z,71.60
2023-05-02T21:53:27.737Z,69.50
2023-05-02T21:57:03.707Z,40.20
2023-05-02T22:00:48.561Z,55.10
2023-05-02T22:04:26.882Z,49.60
2023-05-02T22:08:04.035Z,47.00
2023-05-02T22:11:47.394Z,33.00
2023-05-02T22:15:30.610Z,35.90
2023-05-02T22:19:15.895Z,31.40
2023-05-02T22:23:03.723Z,38.00
2023-05-02T22:26:30.769Z,39.50
2023-05-02T22:30:10.612Z,39.30
2023-05-02T22:33:56.271Z,30.60
2023-05-02T22:37:41.001Z,38.00
2023-05-02T22:41:00.544Z,33.90
2023-05-02T22:44:53.507Z,39.10
2023-05-02T22:48:21.492Z,39.80
2023-05-02T22:52:07.101Z,34.00
2023-05-02T22:55:47.703Z,39.40
2023-05-02T22:59:21.943Z,40.20
2023-05-02T23:03:26.489Z,46.00
2023-05-02T23:06:45.472Z,54.60
2023-05-02T23:10:22.783Z,45.80
2023-05-02T23:13:52.558Z,43.40
2023-05-02T23:17:42.060Z,44.60
2023-05-02T23:21:14.763Z,37.10
2023-05-02T23:24:48.471Z,41.00
2023-05-02T23:28:23.369Z,34.90
2023-05-02T23:32:01.333Z,49.20
2023-05-02T23:35:56.029Z,40.90
2023-05-02T23:39:16.568Z,34.20
2023-05-02T23:42:54.319Z,34.60
2023-05-02T23:46:33.372Z,41.30
2023-05-02T23:50:20.653Z,38.00
2023-05-02T23:53:47.342Z,42.20
2023-05-02T23:57:23.524Z,36.80
